sensor_id;sensor_type;location;lat;lon;timestamp;P1;durP1;ratioP1;P2;durP2;ratioP2
35056;SDS011;21241;51.828;19.574;2022-10-22T00:01:06;26.70;;;24.50;;
35056;SDS011;21241;51.828;19.574;2022-10-22T00:03:40;27.10;;;25.00;;
35056;SDS011;21241;51.828;19.574;2022-10-22T00:06:08;27.30;;;25.20;;
35056;SDS011;21241;51.828;19.574;2022-10-22T00:08:35;27.30;;;25.10;;
35056;SDS011;21241;51.828;19.574;2022-10-22T00:11:07;26.50;;;24.40;;
35056;SDS011;21241;51.828;19.574;2022-10-22T00:13:36;27.00;;;24.80;;
35056;SDS011;21241;51.828;19.574;2022-10-22T00:16:04;27.50;;;25.30;;
35056;SDS011;21241;51.828;19.574;2022-10-22T00:18:32;27.70;;;25.40;;
35056;SDS011;21241;51.828;19.574;2022-10-22T00:21:00;27.20;;;24.90;;
35056;SDS011;21241;51.828;19.574;2022-10-22T00:23:28;27.90;;;25.70;;
35056;SDS011;21241;51.828;19.574;2022-10-22T00:25:56;27.10;;;24.80;;
35056;SDS011;21241;51.828;19.574;2022-10-22T00:28:24;26.30;;;24.10;;
35056;SDS011;21241;51.828;19.574;2022-10-22T00:30:57;27.40;;;25.20;;
35056;SDS011;21241;51.828;19.574;2022-10-22T00:33:28;28.30;;;25.90;;
35056;SDS011;21241;51.828;19.574;2022-10-22T00:35:56;29.10;;;26.80;;
35056;SDS011;21241;51.828;19.574;2022-10-22T00:38:24;29.10;;;26.80;;
35056;SDS011;21241;51.828;19.574;2022-10-22T00:40:52;30.00;;;27.50;;
35056;SDS011;21241;51.828;19.574;2022-10-22T00:43:20;29.90;;;27.60;;
35056;SDS011;21241;51.828;19.574;2022-10-22T00:45:47;28.90;;;26.60;;
35056;SDS011;21241;51.828;19.574;2022-10-22T00:48:18;26.50;;;24.40;;
35056;SDS011;21241;51.828;19.574;2022-10-22T00:50:49;25.90;;;23.80;;
35056;SDS011;21241;51.828;19.574;2022-10-22T00:53:34;25.30;;;23.40;;
35056;SDS011;21241;51.828;19.574;2022-10-22T00:56:12;25.60;;;23.70;;
35056;SDS011;21241;51.828;19.574;2022-10-22T00:58:41;25.30;;;23.40;;
35056;SDS011;21241;51.828;19.574;2022-10-22T01:01:12;27.60;;;25.40;;
35056;SDS011;21241;51.828;19.574;2022-10-22T01:03:43;27.90;;;25.70;;
35056;SDS011;21241;51.828;19.574;2022-10-22T01:06:11;32.20;;;29.60;;
35056;SDS011;21241;51.828;19.574;2022-10-22T01:08:55;34.40;;;31.70;;
35056;SDS011;21241;51.828;19.574;2022-10-22T01:17:17;34.60;;;31.70;;
35056;SDS011;21241;51.828;19.574;2022-10-22T01:20:14;34.90;;;31.80;;
35056;SDS011;21241;51.828;19.574;2022-10-22T01:22:51;34.20;;;31.30;;
35056;SDS011;21241;51.828;19.574;2022-10-22T01:25:30;34.70;;;31.70;;
35056;SDS011;21241;51.828;19.574;2022-10-22T01:28:05;33.40;;;30.40;;
35056;SDS011;21241;51.828;19.574;2022-10-22T01:30:45;32.70;;;30.00;;
35056;SDS011;21241;51.828;19.574;2022-10-22T01:33:14;32.80;;;30.10;;
35056;SDS011;21241;51.828;19.574;2022-10-22T01:35:44;33.40;;;30.70;;
35056;SDS011;21241;51.828;19.574;2022-10-22T01:38:13;32.60;;;30.00;;
35056;SDS011;21241;51.828;19.574;2022-10-22T01:40:44;31.50;;;28.70;;
35056;SDS011;21241;51.828;19.574;2022-10-22T01:43:13;31.30;;;28.80;;
35056;SDS011;21241;51.828;19.574;2022-10-22T01:50:43;31.80;;;29.10;;
35056;SDS011;21241;51.828;19.574;2022-10-22T02:01:25;32.60;;;29.70;;
35056;SDS011;21241;51.828;19.574;2022-10-22T02:04:18;32.30;;;29.50;;
35056;SDS011;21241;51.828;19.574;2022-10-22T02:06:49;33.60;;;30.50;;
35056;SDS011;21241;51.828;19.574;2022-10-22T02:09:17;31.90;;;29.30;;
35056;SDS011;21241;51.828;19.574;2022-10-22T02:11:46;32.40;;;29.70;;
35056;SDS011;21241;51.828;19.574;2022-10-22T02:14:15;32.50;;;29.80;;
35056;SDS011;21241;51.828;19.574;2022-10-22T02:16:45;29.90;;;27.50;;
35056;SDS011;21241;51.828;19.574;2022-10-22T02:19:18;30.90;;;28.30;;
35056;SDS011;21241;51.828;19.574;2022-10-22T02:21:53;30.70;;;28.20;;
35056;SDS011;21241;51.828;19.574;2022-10-22T02:24:21;29.50;;;27.10;;
35056;SDS011;21241;51.828;19.574;2022-10-22T02:32:07;28.80;;;26.60;;
35056;SDS011;21241;51.828;19.574;2022-10-22T02:34:37;29.10;;;26.80;;
35056;SDS011;21241;51.828;19.574;2022-10-22T02:37:05;28.40;;;26.10;;
35056;SDS011;21241;51.828;19.574;2022-10-22T02:39:32;28.90;;;26.50;;
35056;SDS011;21241;51.828;19.574;2022-10-22T02:42:02;28.70;;;26.30;;
35056;SDS011;21241;51.828;19.574;2022-10-22T02:44:30;27.60;;;25.40;;
35056;SDS011;21241;51.828;19.574;2022-10-22T02:46:57;28.00;;;25.80;;
35056;SDS011;21241;51.828;19.574;2022-10-22T02:49:25;27.40;;;25.20;;
35056;SDS011;21241;51.828;19.574;2022-10-22T02:51:52;27.40;;;25.20;;
35056;SDS011;21241;51.828;19.574;2022-10-22T02:54:20;26.90;;;24.40;;
35056;SDS011;21241;51.828;19.574;2022-10-22T02:56:48;27.50;;;25.30;;
35056;SDS011;21241;51.828;19.574;2022-10-22T02:59:15;28.30;;;26.00;;
35056;SDS011;21241;51.828;19.574;2022-10-22T03:01:43;27.50;;;25.20;;
35056;SDS011;21241;51.828;19.574;2022-10-22T03:04:10;28.00;;;25.70;;
35056;SDS011;21241;51.828;19.574;2022-10-22T03:06:38;28.30;;;25.90;;
35056;SDS011;21241;51.828;19.574;2022-10-22T03:09:09;29.10;;;26.60;;
35056;SDS011;21241;51.828;19.574;2022-10-22T03:11:37;28.60;;;26.30;;
35056;SDS011;21241;51.828;19.574;2022-10-22T03:14:05;28.90;;;26.60;;
35056;SDS011;21241;51.828;19.574;2022-10-22T03:16:32;29.00;;;26.60;;
35056;SDS011;21241;51.828;19.574;2022-10-22T03:19:00;28.20;;;25.90;;
35056;SDS011;21241;51.828;19.574;2022-10-22T03:21:36;28.00;;;25.60;;
35056;SDS011;21241;51.828;19.574;2022-10-22T03:24:09;29.00;;;26.60;;
35056;SDS011;21241;51.828;19.574;2022-10-22T03:26:40;27.70;;;25.50;;
35056;SDS011;21241;51.828;19.574;2022-10-22T03:29:09;27.70;;;25.20;;
35056;SDS011;21241;51.828;19.574;2022-10-22T03:31:37;27.00;;;24.80;;
35056;SDS011;21241;51.828;19.574;2022-10-22T03:34:05;28.50;;;26.00;;
35056;SDS011;21241;51.828;19.574;2022-10-22T03:36:32;27.30;;;25.00;;
35056;SDS011;21241;51.828;19.574;2022-10-22T03:39:00;28.00;;;25.70;;
35056;SDS011;21241;51.828;19.574;2022-10-22T03:41:28;27.30;;;25.10;;
35056;SDS011;21241;51.828;19.574;2022-10-22T03:43:56;27.40;;;25.00;;
35056;SDS011;21241;51.828;19.574;2022-10-22T03:46:24;27.50;;;25.10;;
35056;SDS011;21241;51.828;19.574;2022-10-22T03:48:51;27.80;;;25.40;;
35056;SDS011;21241;51.828;19.574;2022-10-22T03:51:19;27.30;;;25.10;;
35056;SDS011;21241;51.828;19.574;2022-10-22T03:53:46;26.20;;;24.10;;
35056;SDS011;21241;51.828;19.574;2022-10-22T03:56:14;26.50;;;24.20;;
35056;SDS011;21241;51.828;19.574;2022-10-22T03:58:41;26.60;;;24.40;;
35056;SDS011;21241;51.828;19.574;2022-10-22T04:01:09;26.10;;;24.00;;
35056;SDS011;21241;51.828;19.574;2022-10-22T04:03:39;27.00;;;24.80;;
35056;SDS011;21241;51.828;19.574;2022-10-22T04:06:08;26.40;;;24.20;;
35056;SDS011;21241;51.828;19.574;2022-10-22T04:08:38;25.90;;;23.70;;
35056;SDS011;21241;51.828;19.574;2022-10-22T04:11:07;27.30;;;24.80;;
35056;SDS011;21241;51.828;19.574;2022-10-22T04:13:35;26.30;;;24.10;;
35056;SDS011;21241;51.828;19.574;2022-10-22T04:16:37;27.20;;;24.70;;
35056;SDS011;21241;51.828;19.574;2022-10-22T04:18:58;26.80;;;24.50;;
35056;SDS011;21241;51.828;19.574;2022-10-22T04:21:26;26.50;;;24.40;;
35056;SDS011;21241;51.828;19.574;2022-10-22T04:23:54;25.70;;;23.70;;
35056;SDS011;21241;51.828;19.574;2022-10-22T04:26:21;26.00;;;23.80;;
35056;SDS011;21241;51.828;19.574;2022-10-22T04:28:50;25.20;;;23.20;;
35056;SDS011;21241;51.828;19.574;2022-10-22T04:31:20;26.30;;;24.20;;
35056;SDS011;21241;51.828;19.574;2022-10-22T04:33:53;27.10;;;24.80;;
35056;SDS011;21241;51.828;19.574;2022-10-22T04:36:22;26.30;;;24.30;;
35056;SDS011;21241;51.828;19.574;2022-10-22T04:38:51;24.70;;;22.60;;
35056;SDS011;21241;51.828;19.574;2022-10-22T04:41:24;26.80;;;24.60;;
35056;SDS011;21241;51.828;19.574;2022-10-22T04:43:55;26.00;;;23.90;;
35056;SDS011;21241;51.828;19.574;2022-10-22T04:46:24;25.20;;;23.10;;
35056;SDS011;21241;51.828;19.574;2022-10-22T04:48:53;24.70;;;22.60;;
35056;SDS011;21241;51.828;19.574;2022-10-22T04:51:21;25.00;;;22.90;;
35056;SDS011;21241;51.828;19.574;2022-10-22T04:53:50;25.10;;;23.10;;
35056;SDS011;21241;51.828;19.574;2022-10-22T04:56:21;25.60;;;23.50;;
35056;SDS011;21241;51.828;19.574;2022-10-22T04:58:52;26.10;;;23.90;;
35056;SDS011;21241;51.828;19.574;2022-10-22T05:01:23;24.60;;;22.70;;
35056;SDS011;21241;51.828;19.574;2022-10-22T05:03:53;24.70;;;22.80;;
35056;SDS011;21241;51.828;19.574;2022-10-22T05:06:21;24.30;;;22.30;;
35056;SDS011;21241;51.828;19.574;2022-10-22T05:08:53;25.00;;;22.80;;
35056;SDS011;21241;51.828;19.574;2022-10-22T05:11:23;25.40;;;23.20;;
35056;SDS011;21241;51.828;19.574;2022-10-22T05:13:56;24.10;;;22.10;;
35056;SDS011;21241;51.828;19.574;2022-10-22T05:16:25;24.70;;;22.60;;
35056;SDS011;21241;51.828;19.574;2022-10-22T05:18:54;25.20;;;23.10;;
35056;SDS011;21241;51.828;19.574;2022-10-22T05:21:22;24.50;;;22.50;;
35056;SDS011;21241;51.828;19.574;2022-10-22T05:23:50;25.30;;;23.10;;
35056;SDS011;21241;51.828;19.574;2022-10-22T05:26:18;24.80;;;22.80;;
35056;SDS011;21241;51.828;19.574;2022-10-22T05:28:48;25.20;;;23.00;;
35056;SDS011;21241;51.828;19.574;2022-10-22T05:31:16;24.80;;;22.50;;
35056;SDS011;21241;51.828;19.574;2022-10-22T05:33:44;24.50;;;22.50;;
35056;SDS011;21241;51.828;19.574;2022-10-22T05:36:13;24.40;;;22.40;;
35056;SDS011;21241;51.828;19.574;2022-10-22T05:38:43;25.00;;;22.90;;
35056;SDS011;21241;51.828;19.574;2022-10-22T05:41:12;24.00;;;22.00;;
35056;SDS011;21241;51.828;19.574;2022-10-22T05:43:41;24.20;;;22.20;;
35056;SDS011;21241;51.828;19.574;2022-10-22T05:46:14;24.90;;;22.80;;
35056;SDS011;21241;51.828;19.574;2022-10-22T05:48:52;24.70;;;22.70;;
35056;SDS011;21241;51.828;19.574;2022-10-22T05:51:22;24.10;;;22.00;;
35056;SDS011;21241;51.828;19.574;2022-10-22T05:53:51;23.00;;;21.00;;
35056;SDS011;21241;51.828;19.574;2022-10-22T05:56:20;23.10;;;21.10;;
35056;SDS011;21241;51.828;19.574;2022-10-22T05:58:49;23.60;;;21.70;;
35056;SDS011;21241;51.828;19.574;2022-10-22T06:01:22;22.90;;;21.20;;
35056;SDS011;21241;51.828;19.574;2022-10-22T06:03:55;23.20;;;21.30;;
35056;SDS011;21241;51.828;19.574;2022-10-22T06:09:05;23.10;;;21.30;;
35056;SDS011;21241;51.828;19.574;2022-10-22T06:11:36;23.80;;;21.80;;
35056;SDS011;21241;51.828;19.574;2022-10-22T06:14:04;23.80;;;21.70;;
35056;SDS011;21241;51.828;19.574;2022-10-22T06:16:31;24.20;;;22.30;;
35056;SDS011;21241;51.828;19.574;2022-10-22T06:18:59;24.80;;;22.90;;
35056;SDS011;21241;51.828;19.574;2022-10-22T06:21:30;24.30;;;22.20;;
35056;SDS011;21241;51.828;19.574;2022-10-22T06:23:59;23.60;;;21.80;;
35056;SDS011;21241;51.828;19.574;2022-10-22T06:26:27;24.40;;;22.30;;
35056;SDS011;21241;51.828;19.574;2022-10-22T06:28:55;23.60;;;21.70;;
35056;SDS011;21241;51.828;19.574;2022-10-22T06:31:24;24.50;;;22.60;;
35056;SDS011;21241;51.828;19.574;2022-10-22T06:33:52;23.70;;;21.70;;
35056;SDS011;21241;51.828;19.574;2022-10-22T06:36:20;23.30;;;21.30;;
35056;SDS011;21241;51.828;19.574;2022-10-22T06:38:52;23.30;;;21.40;;
35056;SDS011;21241;51.828;19.574;2022-10-22T06:41:21;24.30;;;22.30;;
35056;SDS011;21241;51.828;19.574;2022-10-22T06:43:55;23.90;;;21.70;;
35056;SDS011;21241;51.828;19.574;2022-10-22T06:46:24;23.50;;;21.50;;
35056;SDS011;21241;51.828;19.574;2022-10-22T06:48:53;24.50;;;22.40;;
35056;SDS011;21241;51.828;19.574;2022-10-22T06:51:23;22.30;;;20.40;;
35056;SDS011;21241;51.828;19.574;2022-10-22T06:53:53;23.30;;;21.30;;
35056;SDS011;21241;51.828;19.574;2022-10-22T06:56:25;23.20;;;21.30;;
35056;SDS011;21241;51.828;19.574;2022-10-22T06:58:55;23.00;;;21.20;;
35056;SDS011;21241;51.828;19.574;2022-10-22T07:01:25;23.70;;;21.70;;
35056;SDS011;21241;51.828;19.574;2022-10-22T07:03:55;25.70;;;23.50;;
35056;SDS011;21241;51.828;19.574;2022-10-22T07:06:23;27.60;;;25.20;;
35056;SDS011;21241;51.828;19.574;2022-10-22T07:08:52;27.20;;;24.80;;
35056;SDS011;21241;51.828;19.574;2022-10-22T07:11:22;31.60;;;28.70;;
35056;SDS011;21241;51.828;19.574;2022-10-22T07:13:55;29.30;;;26.50;;
35056;SDS011;21241;51.828;19.574;2022-10-22T07:16:24;28.10;;;25.60;;
35056;SDS011;21241;51.828;19.574;2022-10-22T07:18:59;26.00;;;23.90;;
35056;SDS011;21241;51.828;19.574;2022-10-22T07:21:27;26.40;;;24.00;;
35056;SDS011;21241;51.828;19.574;2022-10-22T07:23:56;27.10;;;24.80;;
35056;SDS011;21241;51.828;19.574;2022-10-22T07:26:26;26.20;;;24.10;;
35056;SDS011;21241;51.828;19.574;2022-10-22T07:28:58;26.20;;;23.90;;
35056;SDS011;21241;51.828;19.574;2022-10-22T07:31:26;25.40;;;23.20;;
35056;SDS011;21241;51.828;19.574;2022-10-22T07:33:54;27.50;;;25.10;;
35056;SDS011;21241;51.828;19.574;2022-10-22T07:36:22;27.50;;;25.20;;
35056;SDS011;21241;51.828;19.574;2022-10-22T07:38:52;28.20;;;25.60;;
35056;SDS011;21241;51.828;19.574;2022-10-22T07:41:22;27.40;;;25.00;;
35056;SDS011;21241;51.828;19.574;2022-10-22T07:43:50;27.60;;;25.10;;
35056;SDS011;21241;51.828;19.574;2022-10-22T07:46:18;27.50;;;25.20;;
35056;SDS011;21241;51.828;19.574;2022-10-22T07:48:45;27.20;;;24.60;;
35056;SDS011;21241;51.828;19.574;2022-10-22T07:51:13;26.40;;;24.00;;
35056;SDS011;21241;51.828;19.574;2022-10-22T07:53:41;26.90;;;24.50;;
35056;SDS011;21241;51.828;19.574;2022-10-22T07:56:09;27.20;;;24.80;;
35056;SDS011;21241;51.828;19.574;2022-10-22T07:58:36;27.50;;;25.00;;
35056;SDS011;21241;51.828;19.574;2022-10-22T08:01:04;27.60;;;25.00;;
35056;SDS011;21241;51.828;19.574;2022-10-22T08:03:32;27.80;;;25.40;;
35056;SDS011;21241;51.828;19.574;2022-10-22T08:06:00;26.00;;;23.80;;
35056;SDS011;21241;51.828;19.574;2022-10-22T08:08:28;25.30;;;23.20;;
35056;SDS011;21241;51.828;19.574;2022-10-22T08:10:59;26.10;;;23.70;;
35056;SDS011;21241;51.828;19.574;2022-10-22T08:13:27;26.70;;;24.30;;
35056;SDS011;21241;51.828;19.574;2022-10-22T08:15:58;29.20;;;26.50;;
35056;SDS011;21241;51.828;19.574;2022-10-22T08:18:27;29.50;;;26.90;;
35056;SDS011;21241;51.828;19.574;2022-10-22T08:20:55;30.40;;;27.70;;
35056;SDS011;21241;51.828;19.574;2022-10-22T08:23:22;29.90;;;27.30;;
35056;SDS011;21241;51.828;19.574;2022-10-22T08:25:55;29.80;;;27.30;;
35056;SDS011;21241;51.828;19.574;2022-10-22T08:28:23;32.00;;;29.00;;
35056;SDS011;21241;51.828;19.574;2022-10-22T08:30:52;30.30;;;27.60;;
35056;SDS011;21241;51.828;19.574;2022-10-22T08:33:19;36.30;;;33.10;;
35056;SDS011;21241;51.828;19.574;2022-10-22T08:35:50;37.30;;;33.70;;
35056;SDS011;21241;51.828;19.574;2022-10-22T08:38:19;36.10;;;32.80;;
35056;SDS011;21241;51.828;19.574;2022-10-22T08:40:48;33.80;;;30.70;;
35056;SDS011;21241;51.828;19.574;2022-10-22T08:43:31;35.60;;;32.40;;
35056;SDS011;21241;51.828;19.574;2022-10-22T08:51:20;39.20;;;35.60;;
35056;SDS011;21241;51.828;19.574;2022-10-22T08:54:04;39.30;;;35.70;;
35056;SDS011;21241;51.828;19.574;2022-10-22T08:56:36;36.60;;;33.20;;
35056;SDS011;21241;51.828;19.574;2022-10-22T08:59:13;37.40;;;34.00;;
35056;SDS011;21241;51.828;19.574;2022-10-22T09:01:46;34.40;;;31.10;;
35056;SDS011;21241;51.828;19.574;2022-10-22T09:04:28;36.00;;;32.80;;
35056;SDS011;21241;51.828;19.574;2022-10-22T09:06:59;35.00;;;32.00;;
35056;SDS011;21241;51.828;19.574;2022-10-22T09:09:29;33.40;;;30.30;;
35056;SDS011;21241;51.828;19.574;2022-10-22T09:12:02;33.50;;;30.70;;
35056;SDS011;21241;51.828;19.574;2022-10-22T09:14:32;33.30;;;30.30;;
35056;SDS011;21241;51.828;19.574;2022-10-22T09:17:03;32.40;;;29.70;;
35056;SDS011;21241;51.828;19.574;2022-10-22T09:19:48;32.60;;;29.80;;
35056;SDS011;21241;51.828;19.574;2022-10-22T09:22:39;32.40;;;29.50;;
35056;SDS011;21241;51.828;19.574;2022-10-22T09:25:20;34.10;;;30.90;;
35056;SDS011;21241;51.828;19.574;2022-10-22T09:27:50;33.40;;;30.50;;
35056;SDS011;21241;51.828;19.574;2022-10-22T09:30:20;34.40;;;31.30;;
35056;SDS011;21241;51.828;19.574;2022-10-22T09:35:52;36.50;;;33.20;;
35056;SDS011;21241;51.828;19.574;2022-10-22T09:38:24;37.30;;;34.00;;
35056;SDS011;21241;51.828;19.574;2022-10-22T09:40:56;37.00;;;33.70;;
35056;SDS011;21241;51.828;19.574;2022-10-22T09:43:25;37.70;;;34.30;;
35056;SDS011;21241;51.828;19.574;2022-10-22T09:45:57;37.20;;;34.00;;
35056;SDS011;21241;51.828;19.574;2022-10-22T09:48:31;37.40;;;34.30;;
35056;SDS011;21241;51.828;19.574;2022-10-22T09:51:14;36.80;;;33.60;;
35056;SDS011;21241;51.828;19.574;2022-10-22T09:53:58;43.10;;;39.30;;
35056;SDS011;21241;51.828;19.574;2022-10-22T09:57:16;41.00;;;37.30;;
35056;SDS011;21241;51.828;19.574;2022-10-22T09:59:24;42.40;;;38.80;;
35056;SDS011;21241;51.828;19.574;2022-10-22T10:01:59;39.50;;;36.10;;
35056;SDS011;21241;51.828;19.574;2022-10-22T10:05:05;44.10;;;40.30;;
35056;SDS011;21241;51.828;19.574;2022-10-22T10:07:34;38.50;;;34.80;;
35056;SDS011;21241;51.828;19.574;2022-10-22T10:10:05;40.30;;;36.70;;
35056;SDS011;21241;51.828;19.574;2022-10-22T10:12:50;48.50;;;44.00;;
35056;SDS011;21241;51.828;19.574;2022-10-22T10:29:05;41.10;;;37.30;;
35056;SDS011;21241;51.828;19.574;2022-10-22T10:31:51;42.90;;;38.80;;
35056;SDS011;21241;51.828;19.574;2022-10-22T10:37:20;43.30;;;39.40;;
35056;SDS011;21241;51.828;19.574;2022-10-22T10:42:32;38.90;;;35.30;;
35056;SDS011;21241;51.828;19.574;2022-10-22T10:45:07;39.90;;;36.20;;
35056;SDS011;21241;51.828;19.574;2022-10-22T10:50:49;41.70;;;37.80;;
35056;SDS011;21241;51.828;19.574;2022-10-22T10:59:00;43.90;;;39.40;;
35056;SDS011;21241;51.828;19.574;2022-10-22T11:07:17;46.60;;;42.20;;
35056;SDS011;21241;51.828;19.574;2022-10-22T11:13:10;47.80;;;43.10;;
35056;SDS011;21241;51.828;19.574;2022-10-22T11:15:43;49.60;;;44.60;;
35056;SDS011;21241;51.828;19.574;2022-10-22T11:18:16;50.20;;;45.50;;
35056;SDS011;21241;51.828;19.574;2022-10-22T11:23:35;48.50;;;43.90;;
35056;SDS011;21241;51.828;19.574;2022-10-22T11:26:09;51.00;;;46.00;;
35056;SDS011;21241;51.828;19.574;2022-10-22T11:28:42;52.40;;;47.20;;
35056;SDS011;21241;51.828;19.574;2022-10-22T11:31:13;56.40;;;51.10;;
35056;SDS011;21241;51.828;19.574;2022-10-22T11:36:55;51.20;;;46.20;;
35056;SDS011;21241;51.828;19.574;2022-10-22T11:39:59;51.00;;;45.90;;
35056;SDS011;21241;51.828;19.574;2022-10-22T11:42:21;50.90;;;45.90;;
35056;SDS011;21241;51.828;19.574;2022-10-22T11:45:03;50.90;;;45.70;;
35056;SDS011;21241;51.828;19.574;2022-10-22T11:47:54;50.70;;;45.70;;
35056;SDS011;21241;51.828;19.574;2022-10-22T11:50:27;50.10;;;45.20;;
35056;SDS011;21241;51.828;19.574;2022-10-22T12:08:42;48.40;;;43.60;;
35056;SDS011;21241;51.828;19.574;2022-10-22T12:16:51;50.20;;;45.40;;
35056;SDS011;21241;51.828;19.574;2022-10-22T12:20:16;85.50;;;78.80;;
35056;SDS011;21241;51.828;19.574;2022-10-22T12:22:26;48.10;;;43.70;;
35056;SDS011;21241;51.828;19.574;2022-10-22T12:24:59;50.90;;;46.50;;
35056;SDS011;21241;51.828;19.574;2022-10-22T12:27:35;48.60;;;44.30;;
35056;SDS011;21241;51.828;19.574;2022-10-22T12:30:15;59.40;;;53.90;;
35056;SDS011;21241;51.828;19.574;2022-10-22T12:32:43;47.80;;;43.30;;
35056;SDS011;21241;51.828;19.574;2022-10-22T12:35:15;61.80;;;56.80;;
35056;SDS011;21241;51.828;19.574;2022-10-22T12:37:49;61.70;;;56.60;;
35056;SDS011;21241;51.828;19.574;2022-10-22T12:42:56;45.90;;;41.90;;
35056;SDS011;21241;51.828;19.574;2022-10-22T12:45:26;43.00;;;39.30;;
35056;SDS011;21241;51.828;19.574;2022-10-22T12:47:56;47.10;;;43.00;;
35056;SDS011;21241;51.828;19.574;2022-10-22T12:50:35;50.00;;;45.50;;
35056;SDS011;21241;51.828;19.574;2022-10-22T12:53:12;50.60;;;46.20;;
35056;SDS011;21241;51.828;19.574;2022-10-22T12:55:43;44.40;;;40.40;;
35056;SDS011;21241;51.828;19.574;2022-10-22T12:58:15;45.30;;;41.40;;
35056;SDS011;21241;51.828;19.574;2022-10-22T13:00:44;43.50;;;39.70;;
35056;SDS011;21241;51.828;19.574;2022-10-22T13:03:23;49.20;;;45.10;;
35056;SDS011;21241;51.828;19.574;2022-10-22T13:05:53;49.30;;;45.10;;
35056;SDS011;21241;51.828;19.574;2022-10-22T13:08:21;48.20;;;44.00;;
35056;SDS011;21241;51.828;19.574;2022-10-22T13:10:55;51.20;;;47.10;;
35056;SDS011;21241;51.828;19.574;2022-10-22T13:13:29;44.20;;;40.30;;
35056;SDS011;21241;51.828;19.574;2022-10-22T13:18:40;44.00;;;40.10;;
35056;SDS011;21241;51.828;19.574;2022-10-22T13:21:32;46.90;;;42.60;;
35056;SDS011;21241;51.828;19.574;2022-10-22T13:24:01;46.20;;;42.00;;
35056;SDS011;21241;51.828;19.574;2022-10-22T13:26:34;45.90;;;42.00;;
35056;SDS011;21241;51.828;19.574;2022-10-22T13:29:08;47.80;;;43.50;;
35056;SDS011;21241;51.828;19.574;2022-10-22T13:31:37;46.50;;;42.30;;
35056;SDS011;21241;51.828;19.574;2022-10-22T13:34:14;46.80;;;42.80;;
35056;SDS011;21241;51.828;19.574;2022-10-22T13:36:43;46.50;;;42.30;;
35056;SDS011;21241;51.828;19.574;2022-10-22T13:39:18;46.30;;;42.60;;
35056;SDS011;21241;51.828;19.574;2022-10-22T13:41:47;47.60;;;43.20;;
35056;SDS011;21241;51.828;19.574;2022-10-22T13:44:17;48.60;;;44.40;;
35056;SDS011;21241;51.828;19.574;2022-10-22T13:46:46;55.10;;;50.30;;
35056;SDS011;21241;51.828;19.574;2022-10-22T13:49:15;50.60;;;46.20;;
35056;SDS011;21241;51.828;19.574;2022-10-22T13:51:44;52.60;;;48.00;;
35056;SDS011;21241;51.828;19.574;2022-10-22T13:54:17;55.00;;;50.00;;
35056;SDS011;21241;51.828;19.574;2022-10-22T13:56:47;49.80;;;45.30;;
35056;SDS011;21241;51.828;19.574;2022-10-22T13:59:15;50.50;;;46.00;;
35056;SDS011;21241;51.828;19.574;2022-10-22T14:01:49;48.00;;;43.80;;
35056;SDS011;21241;51.828;19.574;2022-10-22T14:04:17;196.50;;;179.90;;
35056;SDS011;21241;51.828;19.574;2022-10-22T14:06:44;191.60;;;175.30;;
35056;SDS011;21241;51.828;19.574;2022-10-22T14:09:12;125.10;;;113.20;;
35056;SDS011;21241;51.828;19.574;2022-10-22T14:11:41;119.10;;;106.90;;
35056;SDS011;21241;51.828;19.574;2022-10-22T14:14:09;110.40;;;98.50;;
35056;SDS011;21241;51.828;19.574;2022-10-22T14:16:40;123.70;;;110.50;;
35056;SDS011;21241;51.828;19.574;2022-10-22T14:19:09;89.20;;;81.10;;
35056;SDS011;21241;51.828;19.574;2022-10-22T14:21:40;81.80;;;74.90;;
35056;SDS011;21241;51.828;19.574;2022-10-22T14:24:08;174.10;;;158.80;;
35056;SDS011;21241;51.828;19.574;2022-10-22T14:26:39;87.80;;;80.50;;
35056;SDS011;21241;51.828;19.574;2022-10-22T14:29:07;62.70;;;56.80;;
35056;SDS011;21241;51.828;19.574;2022-10-22T14:31:40;52.70;;;47.80;;
35056;SDS011;21241;51.828;19.574;2022-10-22T14:34:12;67.60;;;60.60;;
35056;SDS011;21241;51.828;19.574;2022-10-22T14:36:41;70.00;;;62.80;;
35056;SDS011;21241;51.828;19.574;2022-10-22T14:39:12;61.90;;;55.40;;
35056;SDS011;21241;51.828;19.574;2022-10-22T14:41:40;62.20;;;56.00;;
35056;SDS011;21241;51.828;19.574;2022-10-22T14:44:09;56.80;;;51.40;;
35056;SDS011;21241;51.828;19.574;2022-10-22T14:46:39;59.60;;;53.80;;
35056;SDS011;21241;51.828;19.574;2022-10-22T14:49:09;252.60;;;215.60;;
35056;SDS011;21241;51.828;19.574;2022-10-22T14:51:36;126.70;;;112.90;;
35056;SDS011;21241;51.828;19.574;2022-10-22T14:54:04;133.50;;;104.20;;
35056;SDS011;21241;51.828;19.574;2022-10-22T14:56:32;98.60;;;78.80;;
35056;SDS011;21241;51.828;19.574;2022-10-22T14:59:00;72.80;;;64.00;;
35056;SDS011;21241;51.828;19.574;2022-10-22T15:01:27;67.80;;;60.60;;
35056;SDS011;21241;51.828;19.574;2022-10-22T15:03:55;68.90;;;61.70;;
35056;SDS011;21241;51.828;19.574;2022-10-22T15:06:23;72.10;;;63.00;;
35056;SDS011;21241;51.828;19.574;2022-10-22T15:08:50;59.10;;;53.30;;
35056;SDS011;21241;51.828;19.574;2022-10-22T15:11:18;63.60;;;57.00;;
35056;SDS011;21241;51.828;19.574;2022-10-22T15:13:45;67.20;;;60.30;;
35056;SDS011;21241;51.828;19.574;2022-10-22T15:16:14;61.40;;;55.50;;
35056;SDS011;21241;51.828;19.574;2022-10-22T15:18:42;59.30;;;53.60;;
35056;SDS011;21241;51.828;19.574;2022-10-22T15:21:13;66.40;;;59.90;;
35056;SDS011;21241;51.828;19.574;2022-10-22T15:23:43;65.70;;;59.40;;
35056;SDS011;21241;51.828;19.574;2022-10-22T15:26:11;68.00;;;61.10;;
35056;SDS011;21241;51.828;19.574;2022-10-22T15:28:39;69.40;;;62.20;;
35056;SDS011;21241;51.828;19.574;2022-10-22T15:31:09;83.00;;;68.10;;
35056;SDS011;21241;51.828;19.574;2022-10-22T15:33:39;90.80;;;77.60;;
35056;SDS011;21241;51.828;19.574;2022-10-22T15:36:09;186.00;;;133.40;;
35056;SDS011;21241;51.828;19.574;2022-10-22T15:38:39;95.30;;;76.10;;
35056;SDS011;21241;51.828;19.574;2022-10-22T15:41:08;66.80;;;60.20;;
35056;SDS011;21241;51.828;19.574;2022-10-22T15:43:36;76.60;;;69.20;;
35056;SDS011;21241;51.828;19.574;2022-10-22T15:46:08;69.70;;;63.10;;
35056;SDS011;21241;51.828;19.574;2022-10-22T15:48:40;87.40;;;77.90;;
35056;SDS011;21241;51.828;19.574;2022-10-22T15:51:17;79.70;;;71.30;;
35056;SDS011;21241;51.828;19.574;2022-10-22T15:53:56;77.90;;;69.70;;
35056;SDS011;21241;51.828;19.574;2022-10-22T15:56:26;77.70;;;69.70;;
35056;SDS011;21241;51.828;19.574;2022-10-22T15:58:55;77.50;;;69.40;;
35056;SDS011;21241;51.828;19.574;2022-10-22T16:01:24;74.70;;;67.20;;
35056;SDS011;21241;51.828;19.574;2022-10-22T16:03:53;66.30;;;60.30;;
35056;SDS011;21241;51.828;19.574;2022-10-22T16:06:27;68.30;;;62.10;;
35056;SDS011;21241;51.828;19.574;2022-10-22T16:08:59;72.90;;;65.60;;
35056;SDS011;21241;51.828;19.574;2022-10-22T16:11:28;86.90;;;76.00;;
35056;SDS011;21241;51.828;19.574;2022-10-22T16:13:56;77.40;;;69.40;;
35056;SDS011;21241;51.828;19.574;2022-10-22T16:16:26;76.80;;;68.90;;